createdAt,value
2022-10-03T00:00:55.532Z,99.90
2022-10-03T00:04:00.594Z,99.90
2022-10-03T00:07:21.433Z,99.90
2022-10-03T00:10:22.498Z,99.90
2022-10-03T00:13:25.799Z,99.90
2022-10-03T00:16:12.016Z,99.90
2022-10-03T00:19:09.947Z,99.90
2022-10-03T00:22:26.490Z,99.90
2022-10-03T00:25:32.563Z,99.90
2022-10-03T00:28:41.719Z,99.90
2022-10-03T00:32:00.266Z,99.90
2022-10-03T00:34:52.223Z,99.90
2022-10-03T00:37:58.330Z,99.90
2022-10-03T00:41:14.489Z,99.90
2022-10-03T00:44:09.992Z,99.90
2022-10-03T00:47:10.642Z,99.90
2022-10-03T00:50:36.087Z,99.90
2022-10-03T00:53:26.673Z,99.90
2022-10-03T00:56:29.630Z,99.90
2022-10-03T00:59:34.084Z,99.90
2022-10-03T01:02:46.261Z,99.90
2022-10-03T01:06:02.338Z,99.90
2022-10-03T01:09:04.128Z,99.90
2022-10-03T01:12:00.326Z,99.90
2022-10-03T01:15:11.194Z,99.90
2022-10-03T01:18:18.485Z,99.90
2022-10-03T01:21:10.869Z,99.90
2022-10-03T01:24:20.976Z,99.90
2022-10-03T01:27:11.454Z,99.90
2022-10-03T01:30:22.453Z,99.90
2022-10-03T01:33:16.009Z,99.90
2022-10-03T01:36:21.048Z,99.90
2022-10-03T01:39:10.020Z,99.90
2022-10-03T01:42:17.323Z,99.90
2022-10-03T01:45:29.062Z,99.90
2022-10-03T01:48:53.231Z,99.90
2022-10-03T01:52:01.086Z,99.90
2022-10-03T01:55:02.154Z,99.90
2022-10-03T01:58:02.025Z,99.90
2022-10-03T02:00:59.146Z,99.90
2022-10-03T02:04:04.375Z,99.90
2022-10-03T02:07:12.946Z,99.90
2022-10-03T02:10:07.946Z,99.90
2022-10-03T02:13:02.225Z,99.90
2022-10-03T02:16:25.603Z,99.90
2022-10-03T02:19:18.222Z,99.90
2022-10-03T02:22:16.318Z,99.90
2022-10-03T02:25:24.250Z,99.90
2022-10-03T02:28:16.517Z,99.90
2022-10-03T02:31:40.702Z,99.90
2022-10-03T02:35:10.417Z,99.90
2022-10-03T02:38:06.061Z,99.90
2022-10-03T02:41:04.315Z,99.90
2022-10-03T02:44:09.061Z,99.90
2022-10-03T02:47:19.847Z,99.90
2022-10-03T02:50:09.195Z,99.90
2022-10-03T02:53:27.004Z,99.90
2022-10-03T02:56:41.207Z,99.90
2022-10-03T02:59:53.741Z,99.90
2022-10-03T03:03:17.382Z,99.90
2022-10-03T03:06:39.098Z,99.90
2022-10-03T03:09:47.262Z,99.90
2022-10-03T03:13:11.221Z,99.90
2022-10-03T03:16:23.482Z,99.90
2022-10-03T03:19:09.742Z,99.90
2022-10-03T03:22:16.781Z,99.90
2022-10-03T03:25:19.924Z,99.90
2022-10-03T03:28:38.686Z,99.90
2022-10-03T03:31:29.891Z,99.90
2022-10-03T03:34:31.666Z,99.90
2022-10-03T03:37:30.246Z,99.90
2022-10-03T03:40:32.720Z,99.90
2022-10-03T03:43:37.245Z,99.90
2022-10-03T03:46:50.949Z,99.90
2022-10-03T03:49:51.129Z,99.90
2022-10-03T03:53:09.498Z,99.90
2022-10-03T03:56:03.103Z,99.90
2022-10-03T03:58:55.207Z,99.90
2022-10-03T04:02:10.062Z,99.90
2022-10-03T04:04:56.321Z,99.90
2022-10-03T04:08:12.111Z,99.90
2022-10-03T04:11:33.173Z,99.90
2022-10-03T04:14:47.434Z,99.90
2022-10-03T04:18:14.382Z,99.90
2022-10-03T04:21:21.085Z,99.90
2022-10-03T04:24:35.678Z,99.90
2022-10-03T04:28:00.143Z,99.90
2022-10-03T04:31:02.591Z,99.90
2022-10-03T04:34:03.997Z,99.90
2022-10-03T04:37:17.225Z,99.90
2022-10-03T04:40:27.861Z,99.90
2022-10-03T04:43:58.690Z,99.90
2022-10-03T04:47:14.274Z,99.90
2022-10-03T04:50:12.779Z,99.90
2022-10-03T04:53:13.641Z,99.90
2022-10-03T04:56:18.727Z,99.90
2022-10-03T04:59:23.632Z,99.90
2022-10-03T05:02:28.621Z,99.90
2022-10-03T05:05:41.745Z,99.90
2022-10-03T05:08:49.859Z,99.90
2022-10-03T05:11:55.715Z,99.90
2022-10-03T05:14:52.298Z,99.90
2022-10-03T05:17:40.960Z,99.90
2022-10-03T05:20:54.826Z,99.90
2022-10-03T05:24:02.764Z,99.90
2022-10-03T05:27:35.733Z,99.90
2022-10-03T05:30:50.134Z,99.90
2022-10-03T05:34:14.757Z,99.90
2022-10-03T05:37:15.702Z,99.90
2022-10-03T05:40:20.739Z,99.90
2022-10-03T05:43:36.246Z,99.90
2022-10-03T05:46:54.523Z,99.90
2022-10-03T05:50:09.503Z,99.90
2022-10-03T05:53:34.890Z,99.90
2022-10-03T05:56:53.671Z,99.90
2022-10-03T05:59:59.291Z,99.90
2022-10-03T06:03:19.078Z,99.90
2022-10-03T06:06:24.665Z,99.90
2022-10-03T06:09:26.057Z,99.90
2022-10-03T06:12:38.006Z,99.90
2022-10-03T06:15:38.510Z,99.90
2022-10-03T06:18:47.627Z,99.90
2022-10-03T06:22:04.503Z,99.90
2022-10-03T06:25:13.777Z,99.90
2022-10-03T06:28:36.094Z,99.90
2022-10-03T06:31:58.020Z,99.90
2022-10-03T06:35:22.460Z,99.90
2022-10-03T06:38:26.674Z,99.90
2022-10-03T06:41:22.077Z,99.90
2022-10-03T06:44:44.966Z,99.90
2022-10-03T06:47:40.196Z,99.90
2022-10-03T06:50:35.789Z,99.90
2022-10-03T06:53:40.597Z,99.90
2022-10-03T06:56:58.198Z,99.90
2022-10-03T07:00:07.070Z,99.90
2022-10-03T07:03:27.831Z,99.90
2022-10-03T07:06:41.795Z,99.90
2022-10-03T07:09:46.243Z,99.90
2022-10-03T07:12:48.120Z,99.90
2022-10-03T07:16:26.430Z,99.90
2022-10-03T07:19:31.638Z,99.90
2022-10-03T07:23:08.145Z,99.90
2022-10-03T07:25:57.386Z,99.90
2022-10-03T07:29:02.374Z,99.90
2022-10-03T07:32:04.190Z,99.90
2022-10-03T07:35:02.191Z,99.90
2022-10-03T07:38:39.389Z,99.90
2022-10-03T07:41:31.748Z,99.90
2022-10-03T07:44:50.048Z,99.90
2022-10-03T07:48:17.384Z,99.90
2022-10-03T07:51:21.081Z,99.90
2022-10-03T07:54:38.893Z,99.90
2022-10-03T07:57:48.240Z,99.90
2022-10-03T08:01:08.819Z,99.90
2022-10-03T08:04:29.185Z,99.90
2022-10-03T08:07:53.221Z,99.90
2022-10-03T08:10:54.448Z,99.90
2022-10-03T08:13:49.469Z,99.90
2022-10-03T08:17:00.529Z,99.90
2022-10-03T08:20:05.892Z,99.90
2022-10-03T08:23:15.063Z,99.90
2022-10-03T08:26:22.518Z,99.90
2022-10-03T08:29:26.596Z,99.90
2022-10-03T08:32:28.388Z,99.90
2022-10-03T08:35:30.215Z,99.90
2022-10-03T08:39:07.401Z,99.90
2022-10-03T08:42:14.492Z,99.90
2022-10-03T08:45:28.465Z,99.90
2022-10-03T08:48:33.423Z,99.90
2022-10-03T08:51:47.907Z,99.90
2022-10-03T08:54:55.842Z,99.90
2022-10-03T08:57:56.151Z,99.90
2022-10-03T09:01:09.081Z,99.90
2022-10-03T09:04:32.730Z,99.90
2022-10-03T09:07:43.192Z,99.90
2022-10-03T09:10:35.821Z,99.90
2022-10-03T09:13:50.129Z,99.90
2022-10-03T09:17:06.428Z,99.90
2022-10-03T09:20:27.442Z,99.90
2022-10-03T09:23:41.298Z,99.90
2022-10-03T09:27:05.257Z,99.90
2022-10-03T09:30:20.307Z,99.90
2022-10-03T09:33:18.307Z,99.90
2022-10-03T09:36:08.009Z,99.90
2022-10-03T09:39:07.267Z,99.90
2022-10-03T09:42:17.242Z,99.90
2022-10-03T09:45:22.350Z,99.90
2022-10-03T09:48:42.783Z,99.90
2022-10-03T09:51:58.230Z,99.90
2022-10-03T09:54:53.196Z,99.90
2022-10-03T09:57:51.553Z,99.90
2022-10-03T10:00:37.708Z,99.90
2022-10-03T10:03:29.720Z,99.90
2022-10-03T10:06:16.039Z,99.90
2022-10-03T10:09:14.333Z,99.90
2022-10-03T10:12:16.795Z,99.90
2022-10-03T10:15:41.687Z,99.90
2022-10-03T10:18:40.432Z,99.90
2022-10-03T10:21:41.431Z,99.90
2022-10-03T10:24:30.331Z,99.90
2022-10-03T10:28:10.379Z,99.90
2022-10-03T10:31:24.409Z,99.90
2022-10-03T10:34:30.431Z,99.90
2022-10-03T10:37:58.051Z,99.90
2022-10-03T10:41:21.231Z,99.90
2022-10-03T10:44:32.210Z,99.90
2022-10-03T10:47:30.339Z,99.90
2022-10-03T10:50:56.007Z,99.90
2022-10-03T10:54:29.874Z,99.90
2022-10-03T10:57:26.846Z,99.90
2022-10-03T11:00:26.441Z,99.30
2022-10-03T11:03:18.587Z,98.70
2022-10-03T11:06:24.038Z,99.30
2022-10-03T11:09:34.608Z,99.20
2022-10-03T11:13:00.745Z,99.80
2022-10-03T11:16:05.924Z,99.80
2022-10-03T11:19:07.055Z,99.70
2022-10-03T11:22:24.243Z,97.70
2022-10-03T11:25:40.450Z,98.20
2022-10-03T11:29:14.942Z,97.40
2022-10-03T11:32:32.235Z,96.50
2022-10-03T11:35:42.950Z,96.70
2022-10-03T11:38:59.117Z,96.70
2022-10-03T11:42:06.004Z,96.00
2022-10-03T11:45:16.188Z,96.40
2022-10-03T11:48:24.025Z,96.40
2022-10-03T11:51:19.015Z,95.80
2022-10-03T11:54:32.024Z,95.40
2022-10-03T11:57:30.312Z,96.30
2022-10-03T12:00:20.777Z,95.10
2022-10-03T12:03:13.778Z,94.60
2022-10-03T12:06:28.106Z,94.80
2022-10-03T12:09:14.263Z,95.30
2022-10-03T12:12:09.646Z,95.50
2022-10-03T12:15:04.734Z,94.60
2022-10-03T12:18:10.927Z,94.50
2022-10-03T12:21:21.788Z,94.90
2022-10-03T12:24:29.677Z,94.30
2022-10-03T12:27:20.947Z,94.50
2022-10-03T12:30:16.383Z,94.70
2022-10-03T12:33:21.462Z,93.00
2022-10-03T12:36:33.126Z,93.60
2022-10-03T12:40:01.373Z,93.60
2022-10-03T12:43:24.520Z,94.20
2022-10-03T12:46:30.109Z,94.40
2022-10-03T12:49:25.402Z,95.50
2022-10-03T12:52:27.715Z,94.80
2022-10-03T12:55:29.025Z,95.40
2022-10-03T12:58:38.082Z,95.50
2022-10-03T13:01:45.554Z,95.10
2022-10-03T13:04:55.470Z,95.30
2022-10-03T13:08:03.376Z,95.30
2022-10-03T13:10:56.775Z,95.20
2022-10-03T13:14:01.194Z,95.50
2022-10-03T13:16:48.082Z,95.50
2022-10-03T13:19:42.929Z,95.80
2022-10-03T13:22:48.521Z,95.80
2022-10-03T13:25:45.420Z,95.10
2022-10-03T13:28:56.307Z,94.40
2022-10-03T13:32:05.470Z,95.40
2022-10-03T13:35:31.257Z,94.10
2022-10-03T13:38:45.857Z,93.90
2022-10-03T13:41:59.847Z,93.70
2022-10-03T13:44:59.232Z,92.80
2022-10-03T13:48:00.389Z,92.20
2022-10-03T13:50:58.714Z,91.60
2022-10-03T13:54:00.186Z,91.40
2022-10-03T13:57:02.020Z,91.90
2022-10-03T13:59:56.806Z,90.60
2022-10-03T14:03:08.773Z,90.70
2022-10-03T14:06:18.256Z,90.90
2022-10-03T14:09:16.398Z,91.90
2022-10-03T14:12:33.058Z,92.00
2022-10-03T14:15:42.596Z,92.00
2022-10-03T14:18:35.666Z,92.40
2022-10-03T14:21:51.074Z,92.10
2022-10-03T14:24:40.234Z,92.50
2022-10-03T14:27:42.318Z,92.70
2022-10-03T14:31:04.474Z,92.30
2022-10-03T14:34:30.320Z,92.70
2022-10-03T14:37:20.819Z,92.60
2022-10-03T14:40:48.414Z,92.10
2022-10-03T14:43:48.067Z,92.50
2022-10-03T14:46:40.711Z,92.90
2022-10-03T14:49:53.679Z,92.60
2022-10-03T14:52:44.622Z,92.90
2022-10-03T14:55:43.830Z,92.60
2022-10-03T14:58:35.591Z,92.80
2022-10-03T15:01:28.508Z,92.60
2022-10-03T15:04:41.914Z,92.60
2022-10-03T15:07:54.619Z,92.40
2022-10-03T15:10:41.545Z,92.80
2022-10-03T15:13:27.669Z,93.10
2022-10-03T15:16:19.238Z,93.60
2022-10-03T15:19:11.339Z,94.30
2022-10-03T15:22:07.241Z,93.40
2022-10-03T15:24:55.577Z,93.60
2022-10-03T15:27:44.537Z,92.60
2022-10-03T15:30:34.421Z,93.10
2022-10-03T15:33:34.484Z,93.00
2022-10-03T15:36:25.627Z,93.10
2022-10-03T15:39:30.261Z,92.60
2022-10-03T15:42:30.903Z,92.30
2022-10-03T15:45:28.857Z,92.60
2022-10-03T15:48:20.953Z,92.50
2022-10-03T15:51:17.146Z,92.50
2022-10-03T15:54:07.927Z,92.70
2022-10-03T15:57:01.492Z,93.00
2022-10-03T15:59:53.229Z,93.20
2022-10-03T16:02:52.691Z,93.00
2022-10-03T16:05:55.088Z,93.30
2022-10-03T16:08:53.588Z,93.80
2022-10-03T16:11:47.678Z,93.90
2022-10-03T16:14:43.162Z,94.60
2022-10-03T16:17:39.300Z,94.60
2022-10-03T16:20:57.699Z,95.10
2022-10-03T16:23:45.914Z,94.90
2022-10-03T16:26:49.396Z,95.00
2022-10-03T16:29:39.276Z,95.30
2022-10-03T16:32:29.718Z,95.50
2022-10-03T16:35:48.750Z,95.70
2022-10-03T16:38:38.244Z,95.60
2022-10-03T16:41:34.546Z,96.10
2022-10-03T16:44:39.759Z,96.10
2022-10-03T16:47:35.608Z,96.20
2022-10-03T16:50:25.645Z,96.40
2022-10-03T16:53:13.599Z,96.50
2022-10-03T16:56:07.209Z,96.80
2022-10-03T16:58:55.711Z,96.90
2022-10-03T17:01:50.936Z,97.40
2022-10-03T17:04:39.832Z,97.20
2022-10-03T17:07:40.486Z,97.50
2022-10-03T17:10:45.981Z,97.70
2022-10-03T17:14:10.527Z,98.10
2022-10-03T17:17:02.759Z,98.40
2022-10-03T17:20:26.426Z,98.40
2022-10-03T17:23:40.233Z,98.10
2022-10-03T17:26:40.387Z,98.50
2022-10-03T17:29:33.813Z,99.10
2022-10-03T17:32:38.314Z,98.90
2022-10-03T17:35:55.011Z,99.20
2022-10-03T17:38:59.225Z,99.10
2022-10-03T17:42:02.513Z,98.70
2022-10-03T17:45:09.389Z,99.40
2022-10-03T17:48:34.968Z,99.60
2022-10-03T17:51:33.135Z,99.60
2022-10-03T17:54:28.223Z,99.60
2022-10-03T17:57:40.095Z,99.10
2022-10-03T18:00:54.670Z,99.20
2022-10-03T18:03:55.234Z,99.70
2022-10-03T18:07:01.508Z,99.90
2022-10-03T18:09:50.039Z,99.90
2022-10-03T18:12:39.943Z,99.90
2022-10-03T18:15:47.075Z,99.70
2022-10-03T18:19:07.242Z,99.70
2022-10-03T18:22:02.223Z,99.80
2022-10-03T18:25:39.335Z,99.90
2022-10-03T18:28:58.036Z,99.90
2022-10-03T18:31:48.312Z,99.90
2022-10-03T18:34:43.555Z,99.90
2022-10-03T18:37:29.272Z,99.90
2022-10-03T18:40:18.261Z,99.90
2022-10-03T18:43:05.998Z,99.90
2022-10-03T18:46:09.534Z,99.90
2022-10-03T18:49:32.492Z,99.90
2022-10-03T18:52:24.449Z,99.90
2022-10-03T18:55:29.643Z,99.90
2022-10-03T18:58:25.706Z,99.90
2022-10-03T19:01:24.495Z,99.90
2022-10-03T19:04:15.831Z,99.90
2022-10-03T19:07:11.683Z,99.90
2022-10-03T19:10:11.868Z,99.90
2022-10-03T19:13:28.388Z,99.90
2022-10-03T19:16:42.866Z,99.90
2022-10-03T19:19:32.404Z,99.90
2022-10-03T19:22:27.062Z,99.90
2022-10-03T19:25:23.022Z,99.90
2022-10-03T19:28:28.276Z,99.90
2022-10-03T19:31:31.838Z,99.90
2022-10-03T19:34:28.267Z,99.90
2022-10-03T19:37:26.250Z,99.90
2022-10-03T19:40:44.899Z,99.90
2022-10-03T19:43:34.115Z,99.90
2022-10-03T19:46:47.898Z,99.90
2022-10-03T19:50:19.117Z,99.90
2022-10-03T19:53:16.042Z,99.90
2022-10-03T19:56:04.089Z,99.90
2022-10-03T19:59:04.276Z,99.90
2022-10-03T20:01:50.670Z,99.90
2022-10-03T20:04:37.573Z,99.90
2022-10-03T20:07:44.833Z,99.90
2022-10-03T20:11:04.530Z,99.90
2022-10-03T20:13:51.008Z,99.90
2022-10-03T20:16:43.477Z,99.90
2022-10-03T20:19:56.248Z,99.90
2022-10-03T20:22:43.113Z,99.90
2022-10-03T20:25:36.621Z,99.90
2022-10-03T20:28:46.629Z,99.90
2022-10-03T20:31:33.648Z,99.90
2022-10-03T20:34:24.350Z,99.90
2022-10-03T20:37:46.845Z,99.90
2022-10-03T20:40:52.278Z,99.90
2022-10-03T20:43:45.024Z,99.90
2022-10-03T20:46:31.914Z,99.90
2022-10-03T20:49:30.027Z,99.90
2022-10-03T20:52:18.082Z,99.90
2022-10-03T20:55:09.102Z,99.90
2022-10-03T20:58:05.816Z,99.90
2022-10-03T21:01:14.454Z,99.90
2022-10-03T21:04:27.725Z,99.90
2022-10-03T21:07:36.145Z,99.90
2022-10-03T21:10:31.079Z,99.90
2022-10-03T21:14:01.933Z,99.90
2022-10-03T21:16:51.485Z,99.90
2022-10-03T21:19:55.062Z,99.90
2022-10-03T21:22:42.601Z,99.90
2022-10-03T21:25:35.995Z,99.90
2022-10-03T21:28:29.769Z,99.90
2022-10-03T21:31:35.474Z,99.90
2022-10-03T21:34:30.104Z,99.90
2022-10-03T21:37:23.678Z,99.90
2022-10-03T21:40:32.402Z,99.90
2022-10-03T21:43:27.523Z,99.90
2022-10-03T21:46:23.762Z,99.90
2022-10-03T21:49:37.139Z,99.90
2022-10-03T21:52:50.349Z,99.90
2022-10-03T21:55:53.167Z,99.90
2022-10-03T21:58:49.867Z,99.90
2022-10-03T22:02:01.643Z,99.90
2022-10-03T22:05:00.133Z,99.90
2022-10-03T22:07:46.658Z,99.90
2022-10-03T22:10:36.794Z,99.90
2022-10-03T22:13:25.905Z,99.90
2022-10-03T22:16:49.221Z,99.90
2022-10-03T22:19:52.797Z,99.90
2022-10-03T22:23:07.657Z,99.90
2022-10-03T22:26:20.861Z,99.90
2022-10-03T22:29:32.329Z,99.90
2022-10-03T22:32:27.141Z,99.90
2022-10-03T22:35:28.885Z,99.90
2022-10-03T22:38:17.093Z,99.90
2022-10-03T22:41:12.370Z,99.90
2022-10-03T22:44:00.099Z,99.90
2022-10-03T22:46:52.331Z,99.90
2022-10-03T22:49:41.953Z,99.90
2022-10-03T22:52:35.814Z,99.90
2022-10-03T22:55:25.255Z,99.90
2022-10-03T22:58:12.466Z,99.90
2022-10-03T23:01:01.260Z,99.90
2022-10-03T23:03:47.597Z,99.90
2022-10-03T23:06:59.301Z,99.90
2022-10-03T23:09:45.494Z,99.90
2022-10-03T23:12:39.658Z,99.90
2022-10-03T23:15:27.838Z,99.90
2022-10-03T23:18:29.034Z,99.90
2022-10-03T23:21:15.343Z,99.80
2022-10-03T23:24:18.185Z,99.90
2022-10-03T23:27:38.496Z,99.90
2022-10-03T23:30:24.447Z,99.90
2022-10-03T23:33:17.168Z,99.90
2022-10-03T23:36:16.557Z,99.90
2022-10-03T23:39:03.111Z,99.90
2022-10-03T23:41:58.717Z,99.90
2022-10-03T23:44:54.524Z,99.90
2022-10-03T23:48:06.635Z,99.90
2022-10-03T23:50:58.295Z,99.90
2022-10-03T23:53:48.093Z,99.90
2022-10-03T23:56:43.818Z,99.90
2022-10-03T23:59:35.789Z,99.90
